Rugby, ND

12:05 AM CDT on July 29, 2015 (GMT -0500)
Rugby Municipal | | Change Station
CLOSE
Current Station
Airport
Location: Rugby,
Elevation: 1549 ft
Nearby Weather Stations

Elev 1549 ft 48.39 °N, 100.02 °W | Updated 13 days ago

Overcast
Overcast
58 °F
Feels Like 58 °F
N
31
Wind Variable Wind from West
Gusts 46 mph

Today
High -- | Low -- °F
--% Chance of Precip.
Yesterday
High -- | Low -- °F
Precip. -- in
6:10 AM 9:21 PM
Waxing Gibbous, 93% visible
Pressure 29.81 in
Visibility 3.0 miles
Clouds Few 3000 ft
Few 3800 ft
Mostly Cloudy 5000 ft
Dew Point 53 °F
Humidity 84%
Rainfall 0.00 in
Snow Depth Not available.
UV 0 out of 12
Pollen 3.10 out of 12
Air Quality Not available.
Flu Activity Not available.
METAR KRUG 160315Z AUTO 18005KT 3SM VCTS RA FEW030 FEW038 BKN050 22/20 A2981 RMK AO2 LTG DSNT S-NW

More Conditions Fewer Conditions

Pressure 29.81 in
Visibility 3.0 miles
Clouds Few 3000 ft
Few 3800 ft
Mostly Cloudy 5000 ft
Dew Point 53 °F
Humidity 84%
Rainfall 0.00 in
Snow Depth Not available.
UV 0 out of 12
Pollen 3.10 out of 12
Air Quality Not available.
Flu Activity Not available.
METAR KRUG 160315Z AUTO 18005KT 3SM VCTS RA FEW030 FEW038 BKN050 22/20 A2981 RMK AO2 LTG DSNT S-NW

More Conditions Fewer Conditions

10-Day Weather Forecast

×

Almanac

Astronomy

Jul. 29, 2015 Rise Set
Actual Time
Civil Twilight
Nautical Twilight
Astronomical Twilight
Moon
Length of Visible Light
Length of Day
Tomorrow will be .
, % of the Moon is Illuminated

Today's Extremes

State Highs State Lows

Community

WunderPhotos

Upload Photos

1,842,056 photos uploaded!

WunderBlogs® & News

Nearby

Air Quality

  Air Quality AQ Index Pollutant
Not available.

Snow Depth

Station Depth Elevation

Earthquake Activity

City Distance Mag. Time & Date
Minimum magnitude displayed is 2.5.

Coastal Water Temperatures

Place Temperature

Stations

Nearby Weather Stations

Station Location Temp. Windchill Dew Point Humidity Wind Precip. Elev Updated Type
                   
High Wind Warning
Statement as of 10:07 PM CDT on July 28, 2015

... High Wind Warning now in effect until 1 am CDT Wednesday...

* timing... through early Wednesday morning.

* Winds... west winds with gusts to around 60 mph. Gusts as high
as 70 mph possible northwest and north central.

* Impacts... travel will be dangerous... especially for high
profile vehicles.

Precautionary/preparedness actions...

A High Wind Warning means a hazardous high wind event is expected
or occurring. Sustained wind speeds of at least 40 mph or gusts
of 58 mph or more can lead to property damage.